Terminal Aerodrome Forecast
Issued by NWS Charleston, WV

Current Version | Previous Version | Graphics & Text | Print | Product List | Glossary On
Versions: 1 2 3 4 5 6 7 8 9 10 11 12 13 14 15 16 17 18 19 20 21
000
FTUS41 KRLX 260535
TAFBKW
TAF
KBKW 260535Z 2606/2706 20006KT P6SM SCT150
     FM261500 25007KT P6SM BKN150
     FM261600 25007KT P6SM VCSH BKN050
     FM270000 21004KT P6SM SCT070=

USA.gov is the U.S. government's official web portal to all federal, state and local government web resources and services.